createdAt,value
2018-08-04T00:00:58.682Z,24.30
2018-08-04T00:03:25.637Z,24.20
2018-08-04T00:05:52.630Z,24.20
2018-08-04T00:08:19.577Z,24.20
2018-08-04T00:10:46.616Z,24.10
2018-08-04T00:13:13.625Z,24.10
2018-08-04T00:15:40.582Z,24.10
2018-08-04T00:18:07.587Z,24.10
2018-08-04T00:20:34.570Z,24.00
2018-08-04T00:23:01.589Z,24.00
2018-08-04T00:25:28.590Z,23.90
2018-08-04T00:27:55.889Z,24.00
2018-08-04T00:30:22.912Z,24.00
2018-08-04T00:32:49.892Z,23.90
2018-08-04T00:35:16.877Z,23.90
2018-08-04T00:40:11.936Z,23.80
2018-08-04T00:42:38.985Z,23.80
2018-08-04T00:45:05.990Z,23.80
2018-08-04T00:47:33.248Z,23.80
2018-08-04T00:50:00.278Z,23.70
2018-08-04T00:52:27.457Z,23.70
2018-08-04T00:54:54.517Z,23.70
2018-08-04T00:57:21.792Z,23.70
2018-08-04T00:59:48.756Z,23.70
2018-08-04T01:02:15.679Z,23.60
2018-08-04T01:04:42.641Z,23.60
2018-08-04T01:07:09.586Z,23.60
2018-08-04T01:09:36.548Z,23.60
2018-08-04T01:12:03.750Z,23.60
2018-08-04T01:14:30.750Z,23.60
2018-08-04T01:16:57.720Z,23.60
2018-08-04T01:19:24.696Z,23.50
2018-08-04T01:21:51.847Z,23.60
2018-08-04T01:24:18.811Z,23.50
2018-08-04T01:26:46.170Z,23.50
2018-08-04T01:29:13.139Z,23.50
2018-08-04T01:31:40.081Z,23.50
2018-08-04T01:34:07.152Z,23.50
2018-08-04T01:36:34.385Z,23.50
2018-08-04T01:39:01.402Z,23.50
2018-08-04T01:41:28.366Z,23.50
2018-08-04T01:43:55.367Z,23.40
2018-08-04T01:46:22.354Z,23.30
2018-08-04T01:48:49.379Z,23.30
2018-08-04T01:51:16.308Z,23.30
2018-08-04T01:53:43.279Z,23.30
2018-08-04T01:56:10.661Z,23.30
2018-08-04T01:58:37.640Z,23.30
2018-08-04T02:01:04.646Z,23.20
2018-08-04T02:03:31.623Z,23.20
2018-08-04T02:05:58.672Z,23.20
2018-08-04T02:08:25.848Z,23.20
2018-08-04T02:10:53.046Z,23.20
2018-08-04T02:13:20.011Z,23.20
2018-08-04T02:15:46.999Z,23.10
2018-08-04T02:18:13.987Z,23.10
2018-08-04T02:20:40.932Z,23.00
2018-08-04T02:23:07.922Z,23.00
2018-08-04T02:25:34.901Z,23.00
2018-08-04T02:28:01.893Z,23.00
2018-08-04T02:30:28.897Z,23.00
2018-08-04T02:32:55.910Z,23.00
2018-08-04T02:35:22.931Z,22.90
2018-08-04T02:37:50.354Z,22.90
2018-08-04T02:40:17.436Z,22.90
2018-08-04T02:42:44.475Z,22.90
2018-08-04T02:45:11.502Z,22.90
2018-08-04T02:47:38.533Z,22.90
2018-08-04T02:50:06.219Z,22.90
2018-08-04T02:52:33.501Z,22.90
2018-08-04T02:55:00.811Z,22.80
2018-08-04T02:57:27.870Z,22.90
2018-08-04T02:59:54.823Z,22.80
2018-08-04T03:02:21.823Z,22.80
2018-08-04T03:04:48.777Z,22.80
2018-08-04T03:07:15.702Z,22.80
2018-08-04T03:09:42.682Z,22.70
2018-08-04T03:12:09.675Z,22.80
2018-08-04T03:14:36.623Z,22.80
2018-08-04T03:17:03.589Z,22.80
2018-08-04T03:19:30.630Z,22.80
2018-08-04T03:21:57.586Z,22.90
2018-08-04T03:24:24.998Z,22.90
2018-08-04T03:26:51.973Z,22.80
2018-08-04T03:29:18.930Z,22.80
2018-08-04T03:31:45.895Z,22.80
2018-08-04T03:34:12.909Z,22.90
2018-08-04T03:36:39.898Z,22.80
2018-08-04T03:39:08.015Z,22.80
2018-08-04T03:41:35.097Z,22.70
2018-08-04T03:44:02.095Z,22.70
2018-08-04T03:46:29.106Z,22.70
2018-08-04T03:48:56.075Z,22.60
2018-08-04T03:51:23.087Z,22.70
2018-08-04T03:53:50.093Z,22.70
2018-08-04T03:56:17.153Z,22.70
2018-08-04T03:58:44.142Z,22.70
2018-08-04T04:01:11.136Z,22.70
2018-08-04T04:03:38.088Z,22.80
2018-08-04T04:06:05.054Z,22.90
2018-08-04T04:08:32.071Z,22.90
2018-08-04T04:10:59.330Z,22.90
2018-08-04T04:13:26.277Z,23.00
2018-08-04T04:15:53.265Z,23.00
2018-08-04T04:18:20.282Z,23.00
2018-08-04T04:20:47.278Z,23.00
2018-08-04T04:23:14.217Z,23.00
2018-08-04T04:25:41.211Z,23.00
2018-08-04T04:28:08.221Z,23.00
2018-08-04T04:30:35.232Z,23.10
2018-08-04T04:33:02.274Z,23.10
2018-08-04T04:35:29.297Z,23.10
2018-08-04T04:37:56.289Z,23.00
2018-08-04T04:40:23.318Z,23.10
2018-08-04T04:42:50.339Z,23.10
2018-08-04T04:45:17.283Z,23.00
2018-08-04T04:47:44.375Z,23.00
2018-08-04T04:50:11.325Z,23.10
2018-08-04T04:52:38.356Z,23.20
2018-08-04T04:55:05.383Z,23.20
2018-08-04T04:57:32.402Z,23.30
2018-08-04T04:59:59.343Z,23.30
2018-08-04T05:02:26.339Z,23.30
2018-08-04T05:04:53.364Z,23.30
2018-08-04T05:07:20.356Z,23.30
2018-08-04T05:09:47.442Z,23.50
2018-08-04T05:12:14.399Z,24.00
2018-08-04T05:14:41.390Z,24.70
2018-08-04T05:17:08.468Z,25.10
2018-08-04T05:19:35.467Z,25.50
2018-08-04T05:22:02.477Z,25.50
2018-08-04T05:24:29.465Z,25.50
2018-08-04T05:26:56.470Z,25.60
2018-08-04T05:29:23.450Z,25.70
2018-08-04T05:31:50.732Z,25.30
2018-08-04T05:34:17.683Z,25.10
2018-08-04T05:36:44.695Z,25.40
2018-08-04T05:39:12.678Z,25.40
2018-08-04T05:44:06.788Z,25.20
2018-08-04T05:46:33.811Z,25.40
2018-08-04T05:49:00.795Z,25.40
2018-08-04T05:51:27.775Z,25.50
2018-08-04T05:53:55.053Z,25.40
2018-08-04T05:56:22.081Z,25.40
2018-08-04T05:58:49.108Z,25.20
2018-08-04T06:01:16.149Z,25.40
2018-08-04T06:03:43.164Z,25.60
2018-08-04T06:06:10.204Z,25.80
2018-08-04T06:08:37.242Z,26.00
2018-08-04T06:11:04.513Z,26.10
2018-08-04T06:13:31.536Z,26.50
2018-08-04T06:15:58.555Z,26.60
2018-08-04T06:18:25.553Z,26.70
2018-08-04T06:20:52.695Z,26.90
2018-08-04T23:34:31.962Z,27.00
2018-08-04T23:36:59.063Z,24.90
2018-08-04T23:39:26.097Z,24.70
2018-08-04T23:41:53.139Z,24.60
2018-08-04T23:44:20.480Z,24.60
2018-08-04T23:46:47.536Z,24.60
2018-08-04T23:49:14.495Z,24.50
2018-08-04T23:51:41.530Z,24.40
2018-08-04T23:54:08.580Z,24.40
2018-08-04T23:56:35.543Z,24.40
2018-08-04T23:59:02.476Z,24.30
